Terminal Aerodrome Forecast
Issued by NWS

Home | Current Version | Previous Version | Text Only | Print | Product List | Glossary On
Versions: 1 2 3 4 5 6 7 8 9 10 11 12 13 14 15 16 17 18 19 20 21 22 23 24 25 26 27 28 29 30 31 32 33
000
FTUS46 KSGX 030853 AAB
TAFSAN
TAF AMD
KSAN 030853Z 0309/0412 VRB04KT P6SM BKN018
     FM031200 VRB04KT P6SM OVC020
     FM031730 VRB05KT P6SM SCT025
     FM031900 29009KT P6SM FEW025
     FM040100 VRB04KT P6SM BKN020
     FM041000 VRB03KT P6SM OVC025=

USA.gov is the U.S. government's official web portal to all federal, state and local government web resources and services.